createdAt,value
2023-03-25T00:00:21.328Z,13.03
2023-03-25T00:02:53.681Z,9.87
2023-03-25T00:05:23.638Z,11.87
2023-03-25T00:07:54.214Z,7.63
2023-03-25T00:10:22.593Z,9.60
2023-03-25T00:12:52.524Z,9.93
2023-03-25T00:15:22.322Z,13.07
2023-03-25T00:17:52.306Z,8.73
2023-03-25T00:20:21.487Z,12.40
2023-03-25T00:22:49.806Z,9.83
2023-03-25T00:25:20.397Z,10.50
2023-03-25T00:27:51.202Z,10.20
2023-03-25T00:30:21.212Z,8.60
2023-03-25T00:32:53.847Z,13.53
2023-03-25T00:35:24.128Z,12.80
2023-03-25T00:37:57.521Z,12.73
2023-03-25T00:40:28.466Z,12.67
2023-03-25T00:42:58.294Z,13.37
2023-03-25T00:45:26.737Z,16.90
2023-03-25T00:47:57.132Z,18.13
2023-03-25T00:50:26.186Z,13.90
2023-03-25T00:52:54.973Z,9.27
2023-03-25T00:55:23.382Z,12.47
2023-03-25T00:57:51.775Z,11.53
2023-03-25T01:00:20.949Z,9.20
2023-03-25T01:02:53.785Z,12.07
2023-03-25T01:05:24.053Z,8.87
2023-03-25T01:07:52.647Z,12.50
2023-03-25T01:10:21.306Z,8.93
2023-03-25T01:12:50.028Z,9.70
2023-03-25T01:15:20.037Z,11.00
2023-03-25T01:17:48.776Z,10.10
2023-03-25T01:20:17.665Z,8.17
2023-03-25T01:22:48.340Z,8.20
2023-03-25T01:25:16.965Z,8.80
2023-03-25T01:27:45.416Z,12.90
2023-03-25T01:30:16.429Z,9.60
2023-03-25T01:32:44.997Z,12.00
2023-03-25T01:35:13.468Z,12.30
2023-03-25T01:37:44.767Z,7.10
2023-03-25T01:40:21.143Z,8.30
2023-03-25T01:42:49.632Z,20.03
2023-03-25T01:45:30.696Z,17.70
2023-03-25T01:48:11.435Z,11.03
2023-03-25T01:50:43.529Z,7.97
2023-03-25T01:53:12.479Z,6.77
2023-03-25T01:55:42.292Z,10.90
2023-03-25T01:58:16.496Z,9.63
2023-03-25T02:00:47.779Z,16.40
2023-03-25T02:03:18.962Z,8.87
2023-03-25T02:05:56.095Z,10.20
2023-03-25T02:08:26.958Z,9.07
2023-03-25T02:10:56.840Z,7.63
2023-03-25T02:13:25.408Z,8.53
2023-03-25T02:16:14.593Z,8.43
2023-03-25T02:18:57.281Z,7.50
2023-03-25T02:22:14.786Z,7.63
2023-03-25T02:25:19.228Z,10.80
2023-03-25T02:28:04.900Z,8.80
2023-03-25T02:31:11.161Z,10.47
2023-03-25T02:34:26.479Z,11.23
2023-03-25T02:37:46.826Z,8.97
2023-03-25T02:40:24.859Z,9.67
2023-03-25T02:43:01.245Z,14.40
2023-03-25T02:45:33.663Z,10.00
2023-03-25T02:48:06.545Z,10.57
2023-03-25T02:50:39.527Z,12.50
2023-03-25T02:53:15.472Z,11.00
2023-03-25T02:55:48.059Z,12.93
2023-03-25T02:58:21.516Z,12.30
2023-03-25T03:00:52.154Z,11.40
2023-03-25T03:03:20.652Z,15.40
2023-03-25T03:05:54.283Z,17.80
2023-03-25T03:08:45.304Z,13.10
2023-03-25T03:11:20.508Z,11.23
2023-03-25T03:14:17.762Z,10.23
2023-03-25T03:16:58.554Z,10.17
2023-03-25T03:19:39.137Z,11.90
2023-03-25T03:22:22.588Z,16.37
2023-03-25T03:24:57.199Z,15.33
2023-03-25T03:27:34.206Z,14.27
2023-03-25T03:30:12.139Z,16.30
2023-03-25T03:32:47.204Z,13.23
2023-03-25T03:35:23.850Z,22.30
2023-03-25T03:37:59.995Z,16.47
2023-03-25T03:40:32.840Z,16.77
2023-03-25T03:43:07.947Z,12.60
2023-03-25T03:45:41.482Z,14.10
2023-03-25T03:48:14.042Z,17.10
2023-03-25T03:50:50.523Z,13.17
2023-03-25T03:53:24.952Z,12.40
2023-03-25T03:56:01.888Z,12.70
2023-03-25T03:58:35.756Z,13.97
2023-03-25T04:01:10.851Z,16.07
2023-03-25T04:03:45.263Z,17.00
2023-03-25T04:06:24.405Z,15.00
2023-03-25T04:08:59.905Z,9.53
2023-03-25T04:11:35.310Z,15.90
2023-03-25T04:14:06.796Z,18.17
2023-03-25T04:16:37.535Z,14.20
2023-03-25T04:19:06.759Z,22.50
2023-03-25T04:21:35.268Z,18.20
2023-03-25T04:24:04.659Z,18.53
2023-03-25T04:26:34.059Z,11.97
2023-03-25T04:29:04.838Z,9.23
2023-03-25T04:31:33.279Z,13.40
2023-03-25T04:34:03.021Z,11.07
2023-03-25T04:36:33.684Z,12.33
2023-03-25T04:39:02.267Z,13.87
2023-03-25T04:41:32.135Z,14.83
2023-03-25T04:44:00.689Z,16.50
2023-03-25T04:46:31.076Z,11.20
2023-03-25T04:49:00.512Z,17.20
2023-03-25T04:51:30.228Z,10.47
2023-03-25T04:53:58.560Z,10.67
2023-03-25T04:56:27.144Z,11.00
2023-03-25T04:58:55.446Z,13.17
2023-03-25T05:01:30.546Z,10.13
2023-03-25T05:04:06.083Z,13.10
2023-03-25T05:06:35.648Z,13.60
2023-03-25T05:09:05.982Z,8.83
2023-03-25T05:11:39.485Z,10.63
2023-03-25T05:14:08.272Z,15.20
2023-03-25T05:16:36.868Z,15.07
2023-03-25T05:19:10.846Z,17.43
2023-03-25T05:21:41.193Z,17.57
2023-03-25T05:24:11.860Z,13.63
2023-03-25T05:26:41.970Z,11.83
2023-03-25T05:29:14.424Z,12.53
2023-03-25T05:31:44.817Z,17.40
2023-03-25T05:34:17.222Z,16.57
2023-03-25T05:36:46.089Z,12.43
2023-03-25T05:39:15.606Z,13.23
2023-03-25T05:41:46.108Z,20.70
2023-03-25T05:44:15.419Z,18.30
2023-03-25T05:46:44.189Z,21.00
2023-03-25T05:49:14.170Z,11.23
2023-03-25T05:51:45.240Z,10.20
2023-03-25T05:54:13.741Z,14.00
2023-03-25T05:56:42.958Z,9.80
2023-03-25T05:59:11.455Z,18.73
2023-03-25T06:01:41.964Z,13.97
2023-03-25T06:04:13.121Z,17.67
2023-03-25T06:06:43.251Z,11.90
2023-03-25T06:09:12.182Z,12.60
2023-03-25T06:11:40.585Z,20.40
2023-03-25T06:14:09.266Z,13.50
2023-03-25T06:16:37.866Z,20.20
2023-03-25T06:19:06.226Z,13.50
2023-03-25T06:21:37.087Z,16.67
2023-03-25T06:24:08.215Z,15.03
2023-03-25T06:26:37.149Z,11.67
2023-03-25T06:29:05.620Z,12.73
2023-03-25T06:31:34.496Z,13.40
2023-03-25T06:34:03.396Z,16.23
2023-03-25T06:36:32.359Z,17.60
2023-03-25T06:39:00.762Z,17.00
2023-03-25T06:41:32.161Z,19.33
2023-03-25T06:44:24.451Z,19.90
2023-03-25T06:47:13.685Z,20.00
2023-03-25T06:49:46.902Z,19.43
2023-03-25T06:52:15.424Z,29.00
2023-03-25T06:54:44.070Z,18.10
2023-03-25T06:57:14.146Z,17.77
2023-03-25T06:59:42.596Z,13.57
2023-03-25T07:02:13.489Z,14.40
2023-03-25T07:04:41.815Z,18.27
2023-03-25T07:07:10.917Z,29.93
2023-03-25T07:09:39.837Z,17.10
2023-03-25T07:12:09.563Z,13.87
2023-03-25T07:14:40.045Z,18.87
2023-03-25T07:17:09.539Z,20.80
2023-03-25T07:19:38.016Z,18.13
2023-03-25T07:22:06.451Z,19.27
2023-03-25T07:24:34.945Z,20.20
2023-03-25T07:27:03.604Z,22.80
2023-03-25T07:29:33.716Z,14.67
2023-03-25T07:32:03.694Z,19.17
2023-03-25T07:34:32.202Z,21.70
2023-03-25T07:37:00.688Z,24.90
2023-03-25T07:39:29.255Z,29.90
2023-03-25T07:41:57.784Z,21.77
2023-03-25T07:44:48.986Z,22.00
2023-03-25T07:47:18.894Z,14.63
2023-03-25T07:49:47.801Z,14.77
2023-03-25T07:52:17.559Z,20.33
2023-03-25T07:54:46.023Z,19.60
2023-03-25T07:57:14.413Z,14.40
2023-03-25T07:59:42.848Z,12.40
2023-03-25T08:02:13.368Z,17.17
2023-03-25T08:04:44.258Z,16.90
2023-03-25T08:07:12.722Z,18.23
2023-03-25T08:09:42.567Z,16.90
2023-03-25T08:12:11.050Z,14.03
2023-03-25T08:14:39.450Z,18.20
2023-03-25T08:17:10.504Z,20.90
2023-03-25T08:19:38.885Z,15.57
2023-03-25T08:22:08.638Z,24.63
2023-03-25T08:24:37.185Z,23.73
2023-03-25T08:27:16.286Z,25.53
2023-03-25T08:29:47.327Z,20.77
2023-03-25T08:32:15.989Z,24.60
2023-03-25T08:34:44.539Z,25.13
2023-03-25T08:37:15.412Z,29.87
2023-03-25T08:39:45.065Z,15.20
2023-03-25T08:42:14.516Z,38.17
2023-03-25T08:44:42.903Z,26.70
2023-03-25T08:47:13.765Z,20.10
2023-03-25T08:49:42.196Z,16.63
2023-03-25T08:52:10.831Z,28.13
2023-03-25T08:54:42.952Z,21.23
2023-03-25T08:57:11.550Z,18.10
2023-03-25T08:59:40.044Z,27.53
2023-03-25T09:02:08.858Z,20.80
2023-03-25T09:04:38.955Z,24.37
2023-03-25T09:07:12.633Z,20.73
2023-03-25T09:09:42.745Z,27.33
2023-03-25T09:12:11.252Z,27.03
2023-03-25T09:14:39.833Z,23.33
2023-03-25T09:17:10.309Z,32.80
2023-03-25T09:19:38.835Z,21.90
2023-03-25T09:22:09.429Z,25.10
2023-03-25T09:24:44.946Z,21.37
2023-03-25T09:27:13.446Z,29.83
2023-03-25T09:29:42.060Z,29.00
2023-03-25T09:32:10.663Z,25.00
2023-03-25T09:34:39.501Z,20.60
2023-03-25T09:37:07.909Z,30.03
2023-03-25T09:39:36.518Z,20.10
2023-03-25T09:42:36.873Z,23.23
2023-03-25T09:45:26.589Z,22.50
2023-03-25T09:48:02.216Z,18.83
2023-03-25T09:50:33.068Z,17.50
2023-03-25T09:53:06.285Z,18.50
2023-03-25T09:55:41.760Z,27.70
2023-03-25T09:58:28.722Z,18.90
2023-03-25T10:01:02.654Z,28.30
2023-03-25T10:03:38.654Z,15.60
2023-03-25T10:06:19.742Z,20.10
2023-03-25T10:09:06.122Z,22.93
2023-03-25T10:11:47.290Z,21.63
2023-03-25T10:14:22.785Z,20.30
2023-03-25T10:17:13.162Z,16.80
2023-03-25T10:20:05.468Z,23.60
2023-03-25T10:22:42.889Z,22.63
2023-03-25T10:25:16.928Z,12.33
2023-03-25T10:27:50.078Z,20.33
2023-03-25T10:30:23.888Z,19.80
2023-03-25T10:32:57.147Z,20.37
2023-03-25T10:35:30.982Z,12.13
2023-03-25T10:38:08.757Z,12.67
2023-03-25T10:40:50.168Z,18.40
2023-03-25T10:43:28.202Z,17.70
2023-03-25T10:46:04.625Z,17.60
2023-03-25T10:48:34.848Z,16.83
2023-03-25T10:51:09.459Z,15.07
2023-03-25T10:53:38.618Z,19.20
2023-03-25T10:56:13.767Z,14.30
2023-03-25T10:58:44.839Z,19.30
2023-03-25T11:01:18.497Z,21.87
2023-03-25T11:03:52.106Z,14.87
2023-03-25T11:06:29.686Z,23.97
2023-03-25T11:09:12.336Z,14.90
2023-03-25T11:11:41.781Z,14.03
2023-03-25T11:14:10.433Z,15.27
2023-03-25T11:16:46.947Z,22.73
2023-03-25T11:19:24.123Z,17.83
2023-03-25T11:21:58.070Z,20.27
2023-03-25T11:24:33.685Z,14.37
2023-03-25T11:27:04.146Z,21.70
2023-03-25T11:29:33.161Z,15.83
2023-03-25T11:32:14.248Z,9.90
2023-03-25T11:34:42.918Z,20.43
2023-03-25T11:37:19.124Z,10.87
2023-03-25T11:39:55.306Z,18.17
2023-03-25T11:42:33.606Z,16.30
2023-03-25T11:45:03.661Z,12.07
2023-03-25T11:47:36.792Z,14.13
2023-03-25T11:50:07.486Z,11.70
2023-03-25T11:52:44.552Z,15.47
2023-03-25T11:55:21.104Z,18.97
2023-03-25T11:57:51.464Z,14.90
2023-03-25T12:00:34.069Z,9.63
2023-03-25T12:03:08.189Z,17.00
2023-03-25T12:05:37.284Z,17.30
2023-03-25T12:08:15.417Z,16.10
2023-03-25T12:10:54.374Z,12.60
2023-03-25T12:13:47.736Z,13.20
2023-03-25T12:16:29.486Z,12.30
2023-03-25T12:19:19.784Z,15.87
2023-03-25T12:22:08.480Z,18.20
2023-03-25T12:24:59.598Z,15.10
2023-03-25T12:27:45.442Z,15.53
2023-03-25T12:30:34.023Z,21.77
2023-03-25T12:33:18.404Z,9.93
2023-03-25T12:36:08.471Z,13.37
2023-03-25T12:38:50.586Z,15.80
2023-03-25T12:41:25.564Z,14.30
2023-03-25T12:44:08.844Z,14.53
2023-03-25T12:47:05.749Z,19.63
2023-03-25T12:49:52.624Z,18.80
2023-03-25T12:52:31.088Z,17.17
2023-03-25T12:55:20.995Z,13.43
2023-03-25T12:58:11.395Z,10.80
2023-03-25T13:00:54.831Z,14.43
2023-03-25T13:03:47.272Z,15.73
2023-03-25T13:06:30.284Z,13.50
2023-03-25T13:09:08.374Z,13.50
2023-03-25T13:11:43.389Z,15.13
2023-03-25T13:14:20.821Z,17.60
2023-03-25T13:16:52.215Z,14.33
2023-03-25T13:19:24.672Z,15.90
2023-03-25T13:21:57.450Z,13.37
2023-03-25T13:24:40.228Z,13.77
2023-03-25T13:27:09.152Z,18.23
2023-03-25T13:29:43.819Z,14.23
2023-03-25T13:32:21.726Z,15.87
2023-03-25T13:34:56.904Z,20.70
2023-03-25T13:37:32.786Z,17.00
2023-03-25T13:40:24.869Z,12.93
2023-03-25T13:43:00.600Z,14.77
2023-03-25T13:45:36.567Z,14.83
2023-03-25T13:48:14.097Z,14.17
2023-03-25T13:50:42.911Z,17.83
2023-03-25T13:53:20.182Z,19.80
2023-03-25T13:56:00.003Z,13.27
2023-03-25T13:59:04.167Z,13.70
2023-03-25T14:02:11.708Z,15.63
2023-03-25T14:05:38.855Z,12.50
2023-03-25T14:09:18.610Z,11.83
2023-03-25T14:11:53.627Z,16.67
2023-03-25T14:14:23.946Z,11.37
2023-03-25T14:16:58.214Z,11.93
2023-03-25T14:19:31.602Z,19.27
2023-03-25T14:22:01.021Z,14.50
2023-03-25T14:24:33.745Z,12.80
2023-03-25T14:27:07.950Z,9.47
2023-03-25T14:29:41.908Z,13.87
2023-03-25T14:32:38.068Z,15.27
2023-03-25T14:35:53.217Z,17.27
2023-03-25T14:38:53.866Z,12.60
2023-03-25T14:41:58.535Z,12.97
2023-03-25T14:44:32.827Z,13.80
2023-03-25T14:47:05.038Z,15.00
2023-03-25T14:49:54.419Z,16.23
2023-03-25T14:52:31.623Z,13.57
2023-03-25T14:55:06.219Z,17.67
2023-03-25T14:57:42.661Z,13.90
2023-03-25T15:00:26.431Z,14.73
2023-03-25T15:03:04.466Z,19.17
2023-03-25T15:05:35.261Z,14.50
2023-03-25T15:08:16.837Z,17.60
2023-03-25T15:10:50.198Z,19.90
2023-03-25T15:13:25.488Z,16.57
2023-03-25T15:16:01.779Z,15.43
2023-03-25T15:19:06.046Z,16.13
2023-03-25T15:22:11.328Z,18.47
2023-03-25T15:24:41.908Z,10.07
2023-03-25T15:27:25.868Z,18.60
2023-03-25T15:30:09.274Z,21.47
2023-03-25T15:33:02.065Z,11.57
2023-03-25T15:35:52.163Z,15.47
2023-03-25T15:38:51.961Z,13.83
2023-03-25T15:41:52.959Z,14.00
2023-03-25T15:45:01.980Z,18.73
2023-03-25T15:48:00.334Z,15.63
2023-03-25T15:50:46.321Z,18.17
2023-03-25T15:53:54.823Z,14.87
2023-03-25T15:56:27.324Z,18.27
2023-03-25T15:59:03.585Z,16.80
2023-03-25T16:01:35.455Z,16.10
2023-03-25T16:04:11.203Z,16.10
2023-03-25T16:06:46.472Z,16.70
2023-03-25T16:09:20.115Z,14.50
2023-03-25T16:11:48.690Z,8.60
2023-03-25T16:14:19.800Z,26.63
2023-03-25T16:16:52.463Z,18.43
2023-03-25T16:19:28.254Z,19.50
2023-03-25T16:21:57.076Z,15.33
2023-03-25T16:24:29.739Z,16.43
2023-03-25T16:26:58.274Z,18.03
2023-03-25T16:29:27.619Z,19.17
2023-03-25T16:31:59.217Z,13.97
2023-03-25T16:34:34.861Z,25.67
2023-03-25T16:37:03.913Z,21.07
2023-03-25T16:39:36.787Z,15.03
2023-03-25T16:42:13.499Z,16.60
2023-03-25T16:44:49.651Z,18.13
2023-03-25T16:47:19.395Z,21.50
2023-03-25T16:49:52.500Z,23.23
2023-03-25T16:52:27.653Z,20.73
2023-03-25T16:55:28.171Z,18.60
2023-03-25T16:57:57.015Z,17.50
2023-03-25T17:00:26.957Z,29.23
2023-03-25T17:02:57.042Z,20.87
2023-03-25T17:05:30.471Z,25.73
2023-03-25T17:08:03.628Z,23.10
2023-03-25T17:10:44.927Z,20.83
2023-03-25T17:13:24.549Z,19.30
2023-03-25T17:15:54.191Z,20.87
2023-03-25T17:18:28.758Z,12.90
2023-03-25T17:21:01.438Z,18.83
2023-03-25T17:23:37.375Z,27.17
2023-03-25T17:26:10.042Z,17.67
2023-03-25T17:28:41.240Z,16.37
2023-03-25T17:31:28.153Z,14.10
2023-03-25T17:34:03.165Z,21.10
2023-03-25T17:36:35.524Z,20.10
2023-03-25T17:39:06.807Z,25.23
2023-03-25T17:41:39.892Z,19.93
2023-03-25T17:44:09.143Z,12.70
2023-03-25T17:46:37.581Z,19.60
2023-03-25T17:49:16.803Z,13.13
2023-03-25T17:51:47.763Z,23.83
2023-03-25T17:54:16.330Z,25.93
2023-03-25T17:56:46.969Z,17.10
2023-03-25T17:59:19.285Z,16.40
2023-03-25T18:01:50.181Z,23.20
2023-03-25T18:04:21.126Z,20.70
2023-03-25T18:06:52.353Z,24.30
2023-03-25T18:09:23.450Z,12.23
2023-03-25T18:11:55.669Z,15.03
2023-03-25T18:14:26.060Z,28.00
2023-03-25T18:16:55.627Z,21.33
2023-03-25T18:19:27.591Z,21.10
2023-03-25T18:21:58.837Z,32.43
2023-03-25T18:24:30.488Z,29.37
2023-03-25T18:26:58.940Z,18.90
2023-03-25T18:29:29.588Z,27.70
2023-03-25T18:31:59.026Z,22.10
2023-03-25T18:34:28.852Z,27.13
2023-03-25T18:36:58.709Z,25.13
2023-03-25T18:39:29.252Z,22.07
2023-03-25T18:41:58.069Z,33.43
2023-03-25T18:44:28.667Z,22.57
2023-03-25T18:46:57.349Z,27.63
2023-03-25T18:49:26.018Z,32.83
2023-03-25T18:51:54.664Z,25.33
2023-03-25T18:54:24.515Z,23.67
2023-03-25T18:56:52.946Z,34.27
2023-03-25T18:59:21.994Z,28.83
2023-03-25T19:01:51.009Z,36.20
2023-03-25T19:04:19.325Z,29.17
2023-03-25T19:06:48.262Z,22.43
2023-03-25T19:09:19.290Z,23.40
2023-03-25T19:11:49.482Z,18.40
2023-03-25T19:14:17.806Z,16.90
2023-03-25T19:16:57.062Z,11.57
2023-03-25T19:19:30.085Z,12.57
2023-03-25T19:21:58.773Z,7.67
2023-03-25T19:24:27.187Z,8.23
2023-03-25T19:26:57.142Z,11.77
2023-03-25T19:29:25.754Z,8.33
2023-03-25T19:31:54.600Z,10.07
2023-03-25T19:34:23.179Z,11.93
2023-03-25T19:36:53.376Z,20.37
2023-03-25T19:39:23.038Z,16.30
2023-03-25T19:41:52.859Z,14.13
2023-03-25T19:44:25.509Z,20.23
2023-03-25T19:46:54.016Z,27.00
2023-03-25T19:49:36.374Z,20.73
2023-03-25T19:52:08.445Z,11.40
2023-03-25T19:54:37.261Z,5.80
2023-03-25T19:57:06.135Z,8.63
2023-03-25T19:59:36.580Z,5.03
2023-03-25T20:02:05.694Z,9.63
2023-03-25T20:04:34.175Z,6.93
2023-03-25T20:07:02.566Z,12.43
2023-03-25T20:09:31.367Z,14.80
2023-03-25T20:11:59.988Z,18.10
2023-03-25T20:14:28.958Z,13.53
2023-03-25T20:16:58.824Z,11.60
2023-03-25T20:19:28.200Z,8.23
2023-03-25T20:21:56.666Z,7.00
2023-03-25T20:24:25.105Z,4.50
2023-03-25T20:26:53.657Z,10.97
2023-03-25T20:29:23.165Z,6.20
2023-03-25T20:31:51.618Z,7.63
2023-03-25T20:34:21.387Z,4.60
2023-03-25T20:36:49.975Z,8.53
2023-03-25T20:39:18.735Z,11.63
2023-03-25T20:41:47.224Z,5.80
2023-03-25T20:44:15.839Z,9.30
2023-03-25T20:46:46.527Z,5.47
2023-03-25T20:49:15.619Z,6.20
2023-03-25T20:51:45.840Z,9.63
2023-03-25T20:54:15.004Z,13.03
2023-03-25T20:56:45.965Z,10.73
2023-03-25T20:59:16.782Z,7.40
2023-03-25T21:01:45.909Z,14.77
2023-03-25T21:04:14.981Z,21.40
2023-03-25T21:06:45.014Z,18.37
2023-03-25T21:09:13.584Z,22.27
2023-03-25T21:11:42.410Z,19.63
2023-03-25T21:14:12.610Z,17.47
2023-03-25T21:16:42.427Z,23.67
2023-03-25T21:19:10.884Z,21.57
2023-03-25T21:21:39.599Z,27.50
2023-03-25T21:24:10.120Z,26.87
2023-03-25T21:26:39.154Z,30.73
2023-03-25T21:29:07.643Z,21.63
2023-03-25T21:31:36.233Z,29.53
2023-03-25T21:34:04.947Z,26.93
2023-03-25T21:36:33.353Z,24.30
2023-03-25T21:39:04.281Z,25.47
2023-03-25T21:41:34.113Z,25.27
2023-03-25T21:44:02.597Z,21.00
2023-03-25T21:46:33.573Z,30.67
2023-03-25T21:49:03.917Z,30.80
2023-03-25T21:51:32.532Z,17.67
2023-03-25T21:54:01.437Z,32.50
2023-03-25T21:56:32.593Z,29.40
2023-03-25T21:59:05.006Z,40.60
2023-03-25T22:01:33.593Z,36.63
2023-03-25T22:04:03.930Z,45.50
2023-03-25T22:06:35.612Z,55.53
2023-03-25T22:09:06.550Z,45.60
2023-03-25T22:11:37.575Z,42.80
2023-03-25T22:14:09.753Z,41.57
2023-03-25T22:16:38.688Z,41.20
2023-03-25T22:19:07.977Z,40.67
2023-03-25T22:21:38.146Z,42.50
2023-03-25T22:24:08.889Z,36.23
2023-03-25T22:26:39.817Z,47.73
2023-03-25T22:29:11.618Z,60.43
2023-03-25T22:31:40.730Z,50.83
2023-03-25T22:34:12.932Z,52.83
2023-03-25T22:36:46.238Z,40.30
2023-03-25T22:39:14.632Z,44.00
2023-03-25T22:41:43.111Z,41.77
2023-03-25T22:44:14.985Z,43.87
2023-03-25T22:46:43.780Z,44.70
2023-03-25T22:49:12.314Z,51.00
2023-03-25T22:51:40.805Z,48.83
2023-03-25T22:54:09.948Z,36.67
2023-03-25T22:56:39.056Z,56.73
2023-03-25T22:59:08.763Z,52.40
2023-03-25T23:01:38.787Z,49.30
2023-03-25T23:04:07.653Z,54.63
2023-03-25T23:06:36.907Z,46.17
2023-03-25T23:09:08.950Z,45.20
2023-03-25T23:11:39.131Z,50.27
2023-03-25T23:14:10.721Z,47.60
2023-03-25T23:16:41.746Z,50.40
2023-03-25T23:19:10.569Z,47.03
2023-03-25T23:21:39.250Z,34.23
2023-03-25T23:24:08.718Z,36.77
2023-03-25T23:26:40.153Z,46.60
2023-03-25T23:29:12.276Z,50.43
2023-03-25T23:31:45.313Z,53.93
2023-03-25T23:34:17.614Z,47.93
2023-03-25T23:36:47.441Z,33.00
2023-03-25T23:39:22.212Z,65.33
2023-03-25T23:41:51.150Z,34.03
2023-03-25T23:44:19.615Z,44.40
2023-03-25T23:46:51.130Z,39.67
2023-03-25T23:49:20.866Z,32.93
2023-03-25T23:51:50.980Z,39.33
2023-03-25T23:54:19.517Z,42.53
2023-03-25T23:56:47.926Z,45.13
2023-03-25T23:59:18.355Z,43.63
